Latest Coastal Weather Observations for Roebourne Airport

IDW60701

Issued at 9:43 pm WST Monday 4 May 2026 (issued every 10 minutes, with the page automatically refreshed every 10 minutes)

About coastal observations | Map of coastal stations | Coastal observations for WA | Marine services | Other Formats
Station Details ID: 004090 Name: ROEBOURNE AERO Lat: -20.76 Lon: 117.16 Height: 10.7 m
Data from the previous 72 hours. | See also: Recent months at Roebourne Airport
Date/Time
WST
Wind Sea
Height
m
Swell Vis
km
Cloud Weather Temp
°C
Press
MSL
hPa
Rain since
9am
mm
Dir  Spd
kts
Gust
kts
Height
m
Period
s
Dir
04/09:30pm ESE 5 6 - - - - - - - 21.5 1016.5 0.0
04/09:00pm ENE 3 5 - - - - - - - 21.7 1016.3 0.0
04/08:30pm CALM 0 0 - - - - - - - 21.7 1016.2 0.0
04/08:00pm NNE 6 7 - - - - - - - 23.4 1015.9 0.0
04/07:30pm NNE 4 5 - - - - - - - 24.5 1015.6 0.0
04/07:00pm NNE 3 4 - - - - - - - 25.1 1015.5 0.0
04/06:30pm NNE 4 5 - - - - - - - 26.2 1015.1 0.0
04/06:00pm NNE 6 7 - - - - - - - 27.2 1014.9 0.0
04/05:30pm NE 7 11 - - - - - - - 29.3 1014.6 0.0
04/05:00pm NE 10 11 - - - - - - - 30.4 1014.3 0.0
04/04:30pm ENE 9 13 - - - - - - - 31.8 1014.2 0.0
04/04:00pm E 12 15 - - - - - - - 32.8 1014.2 0.0
04/03:30pm ESE 12 17 - - - - - - - 32.9 1014.1 0.0
04/03:00pm E 12 17 - - - - - - - 33.0 1014.3 0.0
04/02:30pm E 13 17 - - - - - - - 33.2 1014.5 0.0
04/02:00pm E 13 21 - - - - - - - 32.9 1014.8 0.0
04/01:30pm ESE 15 19 - - - - - - - 32.0 1015.1 0.0
04/01:00pm E 15 20 - - - - - - - 31.8 1015.7 0.0
04/12:30pm ESE 15 20 - - - - - - - 31.6 1016.3 0.0
04/12:00pm ESE 15 21 - - - - - - - 31.0 1016.9 0.0
04/11:30am E 18 24 - - - - - - - 30.5 1017.3 0.0
04/11:00am E 18 22 - - - - - - - 29.6 1017.9 0.0
04/10:30am ESE 16 23 - - - - - - - 29.5 1018.4 0.0
04/10:00am E 18 22 - - - - - - - 28.2 1018.6 0.0
04/09:30am ESE 17 24 - - - - - - - 27.2 1018.6 0.0
04/09:00am ESE 18 24 - - - - - - - 26.6 1018.4 0.0
04/08:30am ESE 17 21 - - - - - - - 25.6 1018.3 0.0
04/08:00am ESE 14 17 - - - - - - - 24.1 1018.1 0.0
04/07:30am ESE 11 14 - - - - - - - 22.7 1018.1 0.0
04/07:00am ESE 11 15 - - - - - - - 22.0 1017.9 0.0
04/06:30am ESE 10 12 - - - - - - - 20.8 1017.6 0.0
04/06:00am ESE 9 11 - - - - - - - 20.1 1017.3 0.0
04/05:30am ESE 10 11 - - - - - - - 19.9 1017.0 0.0
04/05:00am ESE 8 9 - - - - - - - 18.4 1016.8 0.0
04/04:30am ESE 8 10 - - - - - - - 20.0 1016.7 0.0
04/04:00am ESE 8 10 - - - - - - - 19.7 1016.6 0.0
04/03:30am ESE 9 11 - - - - - - - 20.6 1016.5 0.0
04/03:00am ESE 11 13 - - - - - - - 22.2 1016.2 0.0
04/02:30am ESE 10 13 - - - - - - - 23.3 1015.9 0.0
04/02:00am SSE 7 8 - - - - - - - 20.4 1015.8 0.0
04/01:30am SSE 7 8 - - - - - - - 21.0 1015.8 0.0
04/01:00am S 7 8 - - - - - - - 20.6 1016.0 0.0
04/12:30am S 6 7 - - - - - - - 20.2 1015.8 0.0
04/12:00am S 6 7 - - - - - - - 20.7 1015.7 0.0
 
Date/Time
WST
Wind Sea
Height
m
Swell Vis
km
Cloud Weather Temp
°C
Press
MSL
hPa
Rain since
9am
mm
Dir  Spd
kts
Gust
kts
Height
m
Period
s
Dir
03/11:30pm S 6 7 - - - - - - - 20.6 1015.7 0.0
03/11:00pm S 3 4 - - - - - - - 20.6 1015.6 0.0
03/10:30pm CALM 0 0 - - - - - - - 21.2 1015.7 0.0
03/10:00pm CALM 0 0 - - - - - - - 21.8 1015.7 0.0
03/09:30pm CALM 0 0 - - - - - - - 22.6 1015.8 0.0
03/09:00pm CALM 0 0 - - - - - - - 23.1 1015.6 0.0
03/08:30pm CALM 0 0 - - - - - - - 23.2 1015.3 0.0
03/08:00pm CALM 0 0 - - - - - - - 23.7 1014.9 0.0
03/07:30pm CALM 0 0 - - - - - - - 24.0 1014.5 0.0
03/07:00pm CALM 0 0 - - - - - - - 25.2 1014.2 0.0
03/06:30pm N 3 3 - - - - - - - 26.4 1013.9 0.0
03/06:00pm NNW 3 4 - - - - - - - 27.2 1013.6 0.0
03/05:30pm N 6 8 - - - - - - - 28.5 1013.3 0.0
03/05:00pm N 8 10 - - - - - - - 29.5 1013.0 0.0
03/04:30pm NNE 9 11 - - - - - - - 30.3 1013.0 0.0
03/04:00pm NNE 9 11 - - - - - - - 30.7 1013.0 0.0
03/03:30pm NE 10 13 - - - - - - - 30.5 1013.1 0.0
03/03:00pm NNE 12 16 - - - - - - - 30.6 1013.2 0.0
03/02:30pm NE 11 15 - - - - - - - 30.9 1013.3 0.0
03/02:00pm NE 11 14 - - - - - - - 31.0 1013.4 0.0
03/01:30pm ENE 11 17 - - - - - - - 31.5 1013.7 0.0
03/01:00pm ENE 11 15 - - - - - - - 31.5 1014.1 0.0
03/12:30pm ENE 13 17 - - - - - - - 30.9 1014.6 0.0
03/12:00pm E 14 19 - - - - - - - 30.5 1015.0 0.0
03/11:30am E 15 19 - - - - - - - 29.6 1015.5 0.0
03/11:00am ENE 15 21 - - - - - - - 29.0 1016.2 0.0
03/10:30am E 14 19 - - - - - - - 28.6 1016.5 0.0
03/10:00am E 17 21 - - - - - - - 27.1 1016.8 0.0
03/09:30am E 17 23 - - - - - - - 26.8 1016.9 0.0
03/09:00am ESE 18 23 - - - - - - - 26.0 1016.9 0.0
03/08:30am ESE 19 25 - - - - - - - 24.6 1016.8 0.0
03/08:00am ESE 19 23 - - - - - - - 24.3 1016.4 0.0
03/07:30am ESE 15 19 - - - - - - - 23.6 1016.1 0.0
03/07:00am ESE 12 15 - - - - - - - 22.3 1015.6 0.0
03/06:30am ESE 9 13 - - - - - - - 21.2 1015.1 0.0
03/06:00am E 8 9 - - - - - - - 20.9 1014.8 0.0
03/05:30am E 7 8 - - - - - - - 21.0 1014.5 0.0
03/05:00am E 8 9 - - - - - - - 21.4 1014.0 0.0
03/04:30am ESE 6 7 - - - - - - - 22.2 1013.9 0.0
03/04:00am ESE 9 11 - - - - - - - 22.8 1013.8 0.0
03/03:30am ESE 6 10 - - - - - - - 23.8 1013.7 0.0
03/03:00am ESE 10 11 - - - - - - - 24.8 1013.5 0.0
03/02:30am SE 8 10 - - - - - - - 24.3 1013.5 0.0
03/02:00am ESE 8 11 - - - - - - - 24.8 1013.4 0.0
03/01:30am ESE 8 10 - - - - - - - 24.6 1013.5 0.0
03/01:00am ESE 7 8 - - - - - - - 23.6 1013.5 0.0
03/12:30am ESE 5 7 - - - - - - - 23.5 1013.7 0.0
03/12:00am E 6 8 - - - - - - - 22.7 1013.6 0.0
 
Date/Time
WST
Wind Sea
Height
m
Swell Vis
km
Cloud Weather Temp
°C
Press
MSL
hPa
Rain since
9am
mm
Dir  Spd
kts
Gust
kts
Height
m
Period
s
Dir
02/11:30pm S 4 5 - - - - - - - 23.2 1013.4 0.0
02/11:00pm S 4 5 - - - - - - - 23.4 1013.5 0.0
02/10:30pm S 5 5 - - - - - - - 23.2 1013.4 0.0
02/10:00pm NNE 3 7 - - - - - - - 23.6 1013.5 0.0
02/09:30pm CALM 0 0 - - - - - - - 24.4 1013.4 0.0
02/09:00pm CALM 0 0 - - - - - - - 24.6 1013.3 0.0
02/08:30pm CALM 0 0 - - - - - - - 25.1 1013.0 0.0
02/08:00pm CALM 0 0 - - - - - - - 25.9 1012.6 0.0
02/07:30pm CALM 0 0 - - - - - - - 26.0 1012.2 0.0
02/07:00pm N 6 7 - - - - - - - 26.9 1011.9 0.0
02/06:30pm N 6 7 - - - - - - - 27.4 1011.6 0.0
02/06:00pm NNW 7 8 - - - - - - - 28.1 1011.4 0.0
02/05:30pm NNW 8 11 - - - - - - - 29.2 1011.2 0.0
02/05:00pm N 10 11 - - - - - - - 30.3 1011.0 0.0
02/04:30pm N 10 12 - - - - - - - 31.2 1010.7 0.0
02/04:00pm N 10 13 - - - - - - - 31.7 1010.6 0.0
02/03:30pm N 11 15 - - - - - - - 31.8 1010.6 0.0
02/03:00pm N 11 16 - - - - - - - 31.9 1010.6 0.0
02/02:30pm NNE 12 17 - - - - - - - 31.7 1010.9 0.0
02/02:00pm NNE 12 16 - - - - - - - 31.8 1011.3 0.0
02/01:30pm NE 12 17 - - - - - - - 32.6 1011.4 0.0
02/01:00pm NE 13 19 - - - - - - - 32.4 1011.6 0.0
02/12:30pm NE 13 20 - - - - - - - 32.7 1012.0 0.0
02/12:00pm E 15 21 - - - - - - - 32.1 1012.4 0.0
02/11:30am E 14 19 - - - - - - - 31.8 1013.0 0.0
02/11:00am E 16 21 - - - - - - - 30.8 1013.4 0.0
02/10:30am E 16 22 - - - - - - - 31.0 1013.7 0.0
02/10:00am ESE 16 21 - - - - - - - 30.3 1013.8 0.0
02/09:30am ESE 19 24 - - - - - - - 29.5 1013.5 0.0
02/09:00am E 20 23 - - - - - - - 28.5 1013.7 0.0
02/08:30am ESE 14 18 - - - - - - - 27.5 1013.3 0.0
02/08:00am ESE 9 13 - - - - - - - 25.6 1013.1 0.0
02/07:30am ESE 5 6 - - - - - - - 23.0 1012.4 0.0
02/07:00am ESE 5 7 - - - - - - - 21.2 1011.9 0.0
02/06:30am ESE 7 7 - - - - - - - 20.3 1011.8 0.0
02/06:00am E 5 7 - - - - - - - 20.0 1011.4 0.0
02/05:30am WNW 3 4 - - - - - - - 20.6 1011.2 0.0
02/05:00am CALM 0 0 - - - - - - - 20.8 1010.9 0.0
02/04:30am CALM 0 0 - - - - - - - 20.9 1010.8 0.0
02/04:00am WSW 4 5 - - - - - - - 22.3 1010.7 0.0
02/03:30am SW 4 5 - - - - - - - 22.5 1010.8 0.0
02/03:00am SSW 4 5 - - - - - - - 22.5 1010.7 0.0
02/02:30am W 6 7 - - - - - - - 23.3 1010.6 0.0
02/02:00am W 7 8 - - - - - - - 24.4 1010.9 0.0
02/01:30am WSW 8 9 - - - - - - - 24.9 1011.0 0.0
02/01:00am SW 8 11 - - - - - - - 25.0 1011.3 0.0
02/12:30am WSW 8 10 - - - - - - - 25.3 1011.7 0.0
02/12:00am W 8 11 - - - - - - - 24.9 1011.8 0.0
 
Date/Time
WST
Wind Sea
Height
m
Swell Vis
km
Cloud Weather Temp
°C
Press
MSL
hPa
Rain since
9am
mm
Dir  Spd
kts
Gust
kts
Height
m
Period
s
Dir
01/11:30pm W 8 10 - - - - - - - 24.9 1012.0 0.0
01/11:00pm W 9 11 - - - - - - - 25.6 1011.9 0.0
01/10:30pm W 8 10 - - - - - - - 25.5 1012.1 0.0
01/10:00pm W 7 9 - - - - - - - 25.7 1012.3 0.0

Other formats

Comma delimited format used in spreadsheet applications
http://www.bom.gov.au/fwo/IDW60701/IDW60701.94308.axf

JavaScript Object Notation format (JSON) in row-major order
http://www.bom.gov.au/fwo/IDW60701/IDW60701.94308.json

Data quality

Most of these data are generated automatically and are frequently updated. Quality checks on data are not normally performed. It is possible for incorrect values to appear. Refer to information at About Latest Weather Observations and please check the disclaimer before using these data.